Terminal Aerodrome Forecast
Issued by NWS

Home | Current Version | Previous Version | Text Only | Print | Product List | Glossary On
Versions: 1 2 3 4 5 6 7 8 9 10 11 12 13 14 15 16 17
746
FTUS44 KJAN 201144
TAFHKS
TAF
KHKS 201144Z 2012/2112 18008KT 6SM BR BKN004 OVC035
     FM201500 19010KT 6SM BR SCT008 BKN015
     FM201700 19012KT P6SM FEW030 SCT250
     FM202300 17008KT P6SM BKN200
     FM210600 17010KT P6SM VCTS SCT015CB BKN100=

USA.gov is the U.S. government's official web portal to all federal, state and local government web resources and services.